Dublin, Ireland
Current Conditions -  °F | °C
As of 11:00 PM on Monday 20 Oct 2014 (Local Time) from EIDW Reporting Station
Scattered Clouds Scattered Clouds  
Wind Chill: 54°   Ceiling: Unl
Heat Index: 54°   Visibility: 6mi
Dew Point: 52°   Wind: 22mph
Humidity: 94%   Direction: 210°SSW
Pressure: 29.44"   Gusts: 33mph
Location:  53.33°N, 6.25°W
Report Text: EIDW 202300Z 21019G29KT 9999 FEW018 SCT040 12/11 Q0997 WS RWY28 RERA TEMPO 22025/40 5000 BKN010
Loading
Personal Weather Stations






























Interactive Weather Map
Tropical Storm Tracking
New forecast layout! Learn more

10-Day Weather Forecast

Advertisements
Track Severe Weather on mobile